Time;durP1;ratioP1;P1;durP2;ratioP2;P2;SDS_P1;SDS_P2;PMS_P1;PMS_P2;Temp;Humidity;BMP_temperature;BMP_pressure;BME280_temperature;BME280_humidity;BME280_pressure;Samples;Min_cycle;Max_cycle;Signal;HPM_P1;HPM_P2
2021/04/30 00:01:17;;;;;;;29.17;18.33;;;;;;;;;;4976738;28;20037;-52
2021/04/30 00:03:43;;;;;;;57.53;37.70;;;;;;;;;;4976705;28;20026;-53
2021/04/30 00:06:10;;;;;;;39.70;23.05;;;;;;;;;;4976500;28;20443;-49
2021/04/30 00:08:37;;;;;;;40.97;24.90;;;;;;;;;;4976465;28;20435;-54
2021/04/30 00:11:04;;;;;;;33.85;19.95;;;;;;;;;;4976450;28;20035;-54
2021/04/30 00:13:30;;;;;;;31.83;19.95;;;;;;;;;;4976525;28;20045;-51
2021/04/30 00:15:56;;;;;;;33.33;22.33;;;;;;;;;;4976321;28;20074;-53
2021/04/30 00:18:22;;;;;;;40.42;21.20;;;;;;;;;;4976272;28;20027;-54
2021/04/30 00:20:56;;;;;;;32.80;22.17;;;;;;;;;;4976266;28;20043;-53
2021/04/30 00:23:26;;;;;;;42.20;23.33;;;;;;;;;;4976428;28;20049;-52
2021/04/30 00:25:53;;;;;;;36.40;22.63;;;;;;;;;;4976269;28;20034;-53
2021/04/30 00:28:22;;;;;;;32.40;20.92;;;;;;;;;;4976028;28;20023;-54
2021/04/30 00:30:51;;;;;;;41.72;26.42;;;;;;;;;;4976139;28;20410;-52
2021/04/30 00:33:17;;;;;;;33.42;21.95;;;;;;;;;;4976140;28;20022;-54
2021/04/30 00:35:43;;;;;;;37.05;24.30;;;;;;;;;;4975921;28;20034;-55
2021/04/30 00:38:12;;;;;;;44.95;29.20;;;;;;;;;;4975830;28;20050;-54
2021/04/30 00:40:39;;;;;;;45.58;28.13;;;;;;;;;;4975702;28;20085;-54
2021/04/30 00:43:05;;;;;;;67.45;43.13;;;;;;;;;;4975863;28;20038;-54
2021/04/30 00:45:33;;;;;;;45.33;28.58;;;;;;;;;;4975885;28;20412;-54
2021/04/30 00:48:00;;;;;;;35.40;21.83;;;;;;;;;;4975661;28;20089;-53
2021/04/30 00:50:27;;;;;;;37.08;21.98;;;;;;;;;;4975853;28;20034;-53
2021/04/30 00:52:53;;;;;;;44.17;26.33;;;;;;;;;;4975585;28;20050;-53
2021/04/30 00:55:21;;;;;;;34.67;21.40;;;;;;;;;;4975627;28;20479;-53
2021/04/30 00:57:50;;;;;;;44.42;27.95;;;;;;;;;;4975709;28;20061;-52
2021/04/30 01:00:16;;;;;;;35.53;22.02;;;;;;;;;;4975537;28;20031;-52
2021/04/30 01:02:43;;;;;;;41.58;23.55;;;;;;;;;;4975546;28;20038;-52
2021/04/30 01:05:09;;;;;;;38.80;21.83;;;;;;;;;;4975519;28;20079;-54
2021/04/30 01:07:35;;;;;;;28.30;19.23;;;;;;;;;;4975221;28;20385;-55
2021/04/30 01:10:03;;;;;;;35.38;21.67;;;;;;;;;;4975435;28;20026;-52
2021/04/30 01:12:29;;;;;;;34.13;20.52;;;;;;;;;;4975376;28;20023;-53
2021/04/30 01:14:55;;;;;;;38.00;24.83;;;;;;;;;;4975403;28;20037;-51
2021/04/30 01:17:21;;;;;;;33.47;21.25;;;;;;;;;;4975321;28;20027;-52
2021/04/30 01:19:47;;;;;;;33.35;21.10;;;;;;;;;;4975460;28;20101;-53
2021/04/30 01:22:13;;;;;;;39.28;23.42;;;;;;;;;;4975117;28;20243;-52
2021/04/30 01:24:40;;;;;;;98.47;51.63;;;;;;;;;;4975328;28;20019;-52
2021/04/30 01:27:06;;;;;;;38.50;23.77;;;;;;;;;;4975117;28;20494;-52
2021/04/30 01:29:34;;;;;;;42.40;27.35;;;;;;;;;;4975051;28;20563;-53
2021/04/30 01:32:00;;;;;;;28.30;19.33;;;;;;;;;;4975284;28;20619;-53
2021/04/30 01:34:26;;;;;;;50.17;30.15;;;;;;;;;;4975291;28;20463;-53
2021/04/30 01:36:52;;;;;;;36.15;22.20;;;;;;;;;;4974961;28;20077;-50
2021/04/30 01:39:18;;;;;;;31.95;19.20;;;;;;;;;;4975213;28;20026;-52
2021/04/30 01:41:44;;;;;;;28.80;20.05;;;;;;;;;;4974866;28;20038;-52
2021/04/30 01:44:12;;;;;;;33.65;22.15;;;;;;;;;;4974953;28;20026;-50
2021/04/30 01:46:39;;;;;;;33.72;19.95;;;;;;;;;;4974827;28;20545;-52
2021/04/30 01:49:05;;;;;;;32.42;18.27;;;;;;;;;;4974761;28;20041;-49
2021/04/30 01:51:34;;;;;;;30.23;19.25;;;;;;;;;;4974793;28;20081;-52
2021/04/30 01:54:00;;;;;;;43.50;29.00;;;;;;;;;;4974583;28;20027;-52
2021/04/30 01:56:26;;;;;;;33.88;22.73;;;;;;;;;;4975123;28;20023;-53
2021/04/30 01:58:52;;;;;;;37.13;24.65;;;;;;;;;;4974866;28;20454;-53
2021/04/30 02:01:18;;;;;;;33.40;22.23;;;;;;;;;;4974683;28;20075;-52
2021/04/30 02:03:45;;;;;;;34.50;21.63;;;;;;;;;;4974669;28;20022;-52
2021/04/30 02:06:11;;;;;;;39.30;22.30;;;;;;;;;;4956989;28;20506;-51
2021/04/30 02:08:37;;;;;;;31.55;21.38;;;;;;;;;;4974821;28;20023;-52
2021/04/30 02:11:03;;;;;;;33.65;20.33;;;;;;;;;;4974987;28;20023;-52
2021/04/30 02:13:30;;;;;;;26.52;18.58;;;;;;;;;;4974508;28;20027;-52
2021/04/30 02:15:56;;;;;;;28.42;19.95;;;;;;;;;;4974461;28;20086;-51
2021/04/30 02:18:23;;;;;;;28.30;19.90;;;;;;;;;;4974498;28;20030;-52
2021/04/30 02:20:49;;;;;;;31.23;19.27;;;;;;;;;;4974534;28;20023;-52
2021/04/30 02:23:18;;;;;;;26.92;17.40;;;;;;;;;;4974560;28;20042;-52
2021/04/30 02:25:44;;;;;;;32.13;18.35;;;;;;;;;;4974713;28;20460;-52
2021/04/30 02:28:10;;;;;;;26.20;18.45;;;;;;;;;;4974666;28;20030;-53
2021/04/30 02:30:38;;;;;;;29.52;21.33;;;;;;;;;;4974699;28;20033;-52
2021/04/30 02:33:05;;;;;;;30.67;21.50;;;;;;;;;;4974599;28;20029;-51
2021/04/30 02:35:41;;;;;;;27.15;19.30;;;;;;;;;;4974569;28;20027;-51
2021/04/30 02:38:08;;;;;;;28.17;19.20;;;;;;;;;;4974793;28;20035;-52
2021/04/30 02:40:35;;;;;;;29.42;19.08;;;;;;;;;;4974429;28;20030;-53
2021/04/30 02:43:03;;;;;;;29.20;18.92;;;;;;;;;;4974338;28;20042;-52
2021/04/30 02:45:29;;;;;;;30.98;21.00;;;;;;;;;;4974422;28;20468;-52
2021/04/30 02:47:56;;;;;;;24.02;18.45;;;;;;;;;;4974109;28;20039;-52
2021/04/30 02:50:26;;;;;;;28.92;18.48;;;;;;;;;;4974148;28;20054;-52
2021/04/30 02:52:54;;;;;;;27.33;17.52;;;;;;;;;;4974530;28;20022;-52
2021/04/30 02:55:22;;;;;;;27.25;17.58;;;;;;;;;;4974235;28;20019;-49
2021/04/30 02:57:55;;;;;;;28.23;17.83;;;;;;;;;;4956894;28;20031;-52
2021/04/30 03:00:22;;;;;;;29.90;18.67;;;;;;;;;;4974076;28;20029;-52
2021/04/30 03:02:50;;;;;;;28.23;18.67;;;;;;;;;;4973923;28;20034;-51
2021/04/30 03:05:16;;;;;;;29.08;18.13;;;;;;;;;;4974275;28;20113;-49
2021/04/30 03:07:43;;;;;;;35.28;24.00;;;;;;;;;;4976958;28;20047;-50
2021/04/30 03:10:10;;;;;;;50.85;36.83;;;;;;;;;;4977971;28;20380;-50
2021/04/30 03:12:36;;;;;;;54.17;43.17;;;;;;;;;;4977729;28;20027;-51
2021/04/30 03:15:05;;;;;;;49.88;39.80;;;;;;;;;;4977585;28;20022;-53
2021/04/30 03:17:31;;;;;;;59.83;42.80;;;;;;;;;;4977655;28;20031;-52
2021/04/30 03:20:00;;;;;;;26.33;18.95;;;;;;;;;;4977754;28;20031;-52
2021/04/30 03:22:26;;;;;;;31.65;20.85;;;;;;;;;;4977446;28;20039;-52
2021/04/30 03:24:52;;;;;;;31.20;18.95;;;;;;;;;;4977636;28;20029;-52
2021/04/30 03:27:18;;;;;;;30.48;19.52;;;;;;;;;;4977743;28;20027;-52
2021/04/30 03:29:44;;;;;;;30.67;20.67;;;;;;;;;;4977534;28;20073;-49
2021/04/30 03:32:10;;;;;;;28.27;19.23;;;;;;;;;;4977447;28;20385;-52
2021/04/30 03:34:37;;;;;;;32.40;20.05;;;;;;;;;;4977341;28;20022;-52
2021/04/30 03:37:04;;;;;;;30.20;19.40;;;;;;;;;;4977443;28;20034;-52
2021/04/30 03:39:30;;;;;;;29.80;19.73;;;;;;;;;;4977673;28;20046;-52
2021/04/30 03:41:56;;;;;;;33.45;22.02;;;;;;;;;;4977150;28;20027;-52
2021/04/30 03:44:24;;;;;;;34.28;22.45;;;;;;;;;;4977170;28;20031;-52
2021/04/30 03:46:50;;;;;;;34.40;21.98;;;;;;;;;;4977134;28;20034;-52
2021/04/30 03:49:16;;;;;;;32.28;19.73;;;;;;;;;;4977006;28;20038;-52
2021/04/30 03:51:45;;;;;;;35.47;21.90;;;;;;;;;;4977177;28;20023;-52
2021/04/30 03:54:11;;;;;;;30.90;21.33;;;;;;;;;;4977000;28;20067;-52
2021/04/30 03:56:37;;;;;;;32.38;20.30;;;;;;;;;;4976917;28;20098;-51
2021/04/30 03:59:03;;;;;;;33.97;20.27;;;;;;;;;;4976830;28;20023;-52
2021/04/30 04:01:29;;;;;;;28.98;18.95;;;;;;;;;;4976762;28;20038;-52
2021/04/30 04:03:55;;;;;;;30.45;18.60;;;;;;;;;;4976886;28;20049;-51
2021/04/30 04:06:21;;;;;;;27.40;17.92;;;;;;;;;;4976746;28;20047;-52
2021/04/30 04:08:48;;;;;;;26.55;18.00;;;;;;;;;;4976909;28;20019;-51
2021/04/30 04:11:14;;;;;;;27.30;18.15;;;;;;;;;;4976645;28;20062;-52
2021/04/30 04:13:40;;;;;;;28.42;18.85;;;;;;;;;;4976530;28;20058;-50
2021/04/30 04:16:06;;;;;;;30.27;19.02;;;;;;;;;;4976345;28;20399;-51
2021/04/30 04:18:32;;;;;;;27.52;17.90;;;;;;;;;;4976002;28;20045;-53
2021/04/30 04:20:59;;;;;;;30.13;21.40;;;;;;;;;;4976365;28;20026;-52
2021/04/30 04:23:25;;;;;;;36.15;21.38;;;;;;;;;;4976453;28;20038;-52
2021/04/30 04:25:53;;;;;;;36.90;21.80;;;;;;;;;;4976479;28;20023;-52
2021/04/30 04:28:19;;;;;;;32.83;20.20;;;;;;;;;;4976447;28;20487;-52
2021/04/30 04:30:46;;;;;;;31.25;20.02;;;;;;;;;;4976336;28;20029;-52
2021/04/30 04:33:12;;;;;;;28.83;19.50;;;;;;;;;;4976472;28;20419;-52
2021/04/30 04:35:38;;;;;;;32.53;20.92;;;;;;;;;;4976437;28;20023;-53
2021/04/30 04:38:04;;;;;;;28.60;19.23;;;;;;;;;;4976431;28;20023;-52
2021/04/30 04:40:30;;;;;;;29.38;18.63;;;;;;;;;;4976241;28;20031;-53
2021/04/30 04:42:56;;;;;;;27.65;19.35;;;;;;;;;;4976045;28;20054;-52
2021/04/30 04:45:22;;;;;;;30.33;18.95;;;;;;;;;;4976052;28;20073;-53
2021/04/30 04:47:49;;;;;;;30.70;18.15;;;;;;;;;;4976011;28;20027;-52
2021/04/30 04:50:15;;;;;;;28.20;18.10;;;;;;;;;;4976156;28;20027;-52
2021/04/30 04:52:42;;;;;;;28.75;19.25;;;;;;;;;;4976106;28;20041;-50
2021/04/30 04:55:12;;;;;;;28.02;18.58;;;;;;;;;;4975944;28;20026;-53
2021/04/30 04:57:39;;;;;;;30.77;18.48;;;;;;;;;;4975747;28;20038;-54
2021/04/30 05:00:06;;;;;;;28.73;18.83;;;;;;;;;;4975630;28;20053;-51
2021/04/30 05:02:32;;;;;;;26.45;18.08;;;;;;;;;;4975744;28;20031;-51
2021/04/30 05:04:58;;;;;;;22.63;17.27;;;;;;;;;;4975828;28;20116;-50
2021/04/30 05:07:24;;;;;;;24.73;17.63;;;;;;;;;;4975282;28;20046;-52
2021/04/30 05:09:51;;;;;;;28.02;18.13;;;;;;;;;;4975650;28;20027;-51
2021/04/30 05:12:17;;;;;;;35.72;20.40;;;;;;;;;;4975435;28;20491;-51
2021/04/30 05:14:45;;;;;;;27.10;18.58;;;;;;;;;;4975338;28;20067;-49
2021/04/30 05:17:12;;;;;;;30.35;19.08;;;;;;;;;;4975208;28;20033;-51
2021/04/30 05:19:38;;;;;;;22.90;16.55;;;;;;;;;;4975121;28;20023;-52
2021/04/30 05:22:08;;;;;;;25.67;17.00;;;;;;;;;;4975481;28;20062;-50
2021/04/30 05:24:34;;;;;;;22.35;16.27;;;;;;;;;;4975007;28;20077;-51
2021/04/30 05:27:01;;;;;;;22.77;16.15;;;;;;;;;;4975285;28;20471;-52
2021/04/30 05:29:27;;;;;;;21.25;14.57;;;;;;;;;;4974431;28;20027;-49
2021/04/30 05:31:54;;;;;;;23.92;14.80;;;;;;;;;;4974895;28;20035;-52
2021/04/30 05:34:20;;;;;;;20.65;13.13;;;;;;;;;;4974865;28;20035;-52
2021/04/30 05:36:46;;;;;;;25.05;12.68;;;;;;;;;;4975102;28;20038;-50
2021/04/30 05:39:12;;;;;;;17.77;12.32;;;;;;;;;;4974911;28;20041;-52
2021/04/30 05:41:38;;;;;;;18.70;11.55;;;;;;;;;;4974930;28;20027;-52
2021/04/30 05:44:05;;;;;;;23.50;12.32;;;;;;;;;;4974932;28;20047;-52
2021/04/30 05:46:33;;;;;;;20.35;12.82;;;;;;;;;;4974707;28;20019;-52
2021/04/30 05:49:00;;;;;;;18.52;11.73;;;;;;;;;;4974571;28;20038;-52
2021/04/30 05:51:26;;;;;;;18.52;11.75;;;;;;;;;;4974955;28;20042;-52
2021/04/30 05:53:52;;;;;;;17.10;11.82;;;;;;;;;;4974463;28;20019;-51
2021/04/30 05:56:18;;;;;;;16.52;10.35;;;;;;;;;;4974664;28;20031;-53
2021/04/30 05:58:44;;;;;;;15.00;10.30;;;;;;;;;;4974570;28;20029;-51
2021/04/30 06:01:10;;;;;;;18.25;10.52;;;;;;;;;;4974463;28;20105;-52
2021/04/30 06:03:36;;;;;;;16.50;9.25;;;;;;;;;;4974463;28;20511;-52
2021/04/30 06:06:02;;;;;;;12.13;8.90;;;;;;;;;;4974605;28;20145;-52
2021/04/30 06:08:28;;;;;;;13.88;8.48;;;;;;;;;;4974534;28;20035;-53
2021/04/30 06:10:55;;;;;;;15.98;10.38;;;;;;;;;;4974662;28;20085;-55
2021/04/30 06:13:21;;;;;;;13.75;10.23;;;;;;;;;;4974699;28;20033;-54
2021/04/30 06:15:47;;;;;;;17.40;10.32;;;;;;;;;;4974385;28;20522;-54
2021/04/30 06:18:13;;;;;;;23.13;13.88;;;;;;;;;;4974269;28;20037;-53
2021/04/30 06:20:39;;;;;;;20.20;13.57;;;;;;;;;;4974426;28;20030;-53
2021/04/30 06:23:05;;;;;;;22.30;11.82;;;;;;;;;;4974277;28;20587;-52
2021/04/30 06:25:31;;;;;;;29.38;18.90;;;;;;;;;;4974333;28;20027;-53
2021/04/30 06:27:57;;;;;;;19.58;9.98;;;;;;;;;;4974328;28;20105;-53
2021/04/30 06:30:24;;;;;;;15.32;10.55;;;;;;;;;;4974378;28;20031;-54
2021/04/30 06:32:50;;;;;;;16.15;9.45;;;;;;;;;;4974439;28;20026;-53
2021/04/30 06:35:16;;;;;;;19.52;11.07;;;;;;;;;;4974645;28;20498;-52
2021/04/30 06:37:42;;;;;;;16.50;10.95;;;;;;;;;;4974295;28;20027;-53
2021/04/30 06:40:08;;;;;;;15.85;10.05;;;;;;;;;;4975000;28;20074;-54
2021/04/30 06:42:35;;;;;;;20.45;10.43;;;;;;;;;;4978344;28;20031;-54
2021/04/30 06:45:01;;;;;;;13.52;9.32;;;;;;;;;;4978284;28;20070;-53
2021/04/30 06:47:28;;;;;;;16.05;11.27;;;;;;;;;;4978170;28;20476;-52
2021/04/30 06:49:54;;;;;;;26.38;15.30;;;;;;;;;;4978043;28;20035;-53
2021/04/30 06:52:20;;;;;;;17.27;10.32;;;;;;;;;;4978255;28;20038;-52
2021/04/30 06:54:46;;;;;;;16.10;8.85;;;;;;;;;;4978138;28;20022;-53
2021/04/30 06:57:16;;;;;;;17.10;8.75;;;;;;;;;;4978215;28;20026;-51
2021/04/30 06:59:45;;;;;;;17.48;9.57;;;;;;;;;;4978042;28;20083;-51
2021/04/30 07:02:11;;;;;;;13.90;7.40;;;;;;;;;;4977883;28;20031;-52
2021/04/30 07:04:37;;;;;;;17.48;7.85;;;;;;;;;;4977734;28;20031;-52
2021/04/30 07:07:04;;;;;;;16.30;7.10;;;;;;;;;;4977641;28;20051;-52
2021/04/30 07:09:31;;;;;;;12.48;6.55;;;;;;;;;;4978032;28;20098;-53
2021/04/30 07:11:57;;;;;;;16.90;8.57;;;;;;;;;;4978022;28;20019;-52
2021/04/30 07:14:23;;;;;;;16.73;8.38;;;;;;;;;;4977533;28;20035;-54
2021/04/30 07:16:49;;;;;;;18.25;6.40;;;;;;;;;;4977503;28;20038;-53
2021/04/30 07:19:15;;;;;;;19.08;7.40;;;;;;;;;;4977819;28;20178;-53
2021/04/30 07:21:41;;;;;;;13.35;7.25;;;;;;;;;;4977490;28;20042;-53
2021/04/30 07:24:08;;;;;;;20.63;12.30;;;;;;;;;;4977540;28;20022;-54
2021/04/30 07:26:34;;;;;;;18.98;9.68;;;;;;;;;;4977479;28;20031;-53
2021/04/30 07:29:00;;;;;;;18.50;10.60;;;;;;;;;;4977417;28;20074;-53
2021/04/30 07:31:26;;;;;;;16.92;8.32;;;;;;;;;;4977304;28;20081;-52
2021/04/30 07:33:52;;;;;;;60.50;41.00;;;;;;;;;;4977291;28;20058;-53
2021/04/30 07:36:18;;;;;;;13.27;8.75;;;;;;;;;;4977333;28;20106;-54
2021/04/30 07:38:44;;;;;;;36.45;22.95;;;;;;;;;;4977290;28;20484;-53
2021/04/30 07:41:11;;;;;;;14.25;9.27;;;;;;;;;;4977190;28;20117;-54
2021/04/30 07:43:37;;;;;;;23.70;10.38;;;;;;;;;;4977057;28;20495;-53
2021/04/30 07:46:04;;;;;;;28.08;15.48;;;;;;;;;;4976933;28;20089;-53
2021/04/30 07:48:30;;;;;;;25.70;14.27;;;;;;;;;;4977055;28;20023;-53
2021/04/30 07:50:57;;;;;;;15.07;9.52;;;;;;;;;;4977298;28;20050;-53
2021/04/30 07:53:23;;;;;;;28.50;15.73;;;;;;;;;;4976521;28;20034;-54
2021/04/30 07:55:49;;;;;;;14.15;3.42;;;;;;;;;;4977139;28;20023;-52
2021/04/30 07:58:19;;;;;;;9.07;5.45;;;;;;;;;;4976953;28;20030;-54
2021/04/30 08:00:45;;;;;;;27.35;14.65;;;;;;;;;;4976809;28;20030;-53
2021/04/30 08:03:11;;;;;;;39.95;21.52;;;;;;;;;;4976813;28;20046;-53
2021/04/30 08:05:37;;;;;;;39.30;26.13;;;;;;;;;;4976867;28;20031;-54
2021/04/30 08:08:04;;;;;;;49.15;36.33;;;;;;;;;;4959148;28;20042;-53
2021/04/30 08:10:31;;;;;;;27.75;17.08;;;;;;;;;;4976686;28;20023;-54
2021/04/30 08:12:58;;;;;;;19.15;11.40;;;;;;;;;;4976694;28;20110;-54
2021/04/30 08:15:24;;;;;;;12.80;6.07;;;;;;;;;;4976528;28;20038;-53
2021/04/30 08:17:50;;;;;;;10.65;5.57;;;;;;;;;;4976495;28;20546;-53
2021/04/30 08:20:16;;;;;;;49.28;36.58;;;;;;;;;;4976445;28;20039;-54
2021/04/30 08:22:42;;;;;;;57.78;26.00;;;;;;;;;;4976704;28;20042;-53
2021/04/30 08:25:12;;;;;;;46.92;29.40;;;;;;;;;;4976472;28;20030;-53
2021/04/30 08:27:41;;;;;;;35.97;20.38;;;;;;;;;;4976379;28;20353;-54
2021/04/30 08:30:07;;;;;;;7.78;3.97;;;;;;;;;;4976323;28;20034;-54
2021/04/30 08:32:35;;;;;;;9.05;4.00;;;;;;;;;;4976189;28;20031;-55
2021/04/30 08:35:01;;;;;;;9.50;2.90;;;;;;;;;;4976628;28;20023;-53
2021/04/30 08:37:27;;;;;;;28.65;16.60;;;;;;;;;;4976417;28;20030;-55
2021/04/30 08:39:54;;;;;;;20.65;7.97;;;;;;;;;;4976304;28;20023;-54
2021/04/30 08:42:20;;;;;;;52.53;46.53;;;;;;;;;;4976035;28;20045;-55
2021/04/30 08:44:46;;;;;;;12.48;5.38;;;;;;;;;;4976002;28;20033;-52
2021/04/30 08:47:16;;;;;;;11.18;4.00;;;;;;;;;;4975841;28;20110;-51
2021/04/30 08:49:42;;;;;;;14.65;3.38;;;;;;;;;;4976047;28;20058;-53
2021/04/30 08:52:09;;;;;;;19.63;9.77;;;;;;;;;;4976032;28;20026;-53
2021/04/30 08:54:37;;;;;;;15.30;5.25;;;;;;;;;;4969395;28;20086;-53
2021/04/30 08:57:08;;;;;;;57.17;40.05;;;;;;;;;;4965613;28;20033;-53
2021/04/30 08:59:34;;;;;;;28.25;16.77;;;;;;;;;;4965108;28;20069;-53
2021/04/30 09:02:01;;;;;;;46.70;31.92;;;;;;;;;;4965201;28;20023;-53
2021/04/30 09:04:29;;;;;;;107.03;73.68;;;;;;;;;;4957465;28;20031;-51
2021/04/30 09:06:55;;;;;;;24.05;12.80;;;;;;;;;;4964620;28;20046;-51
2021/04/30 09:09:22;;;;;;;98.18;60.45;;;;;;;;;;4956114;28;20031;-46
2021/04/30 09:11:52;;;;;;;40.70;25.40;;;;;;;;;;4956497;29;20395;-49
2021/04/30 09:14:22;;;;;;;31.52;16.15;;;;;;;;;;4956216;29;20538;-52
2021/04/30 09:17:13;;;;;;;14.38;9.32;;;;;;;;;;4962592;28;20455;-48
2021/04/30 09:19:39;;;;;;;12.75;5.72;;;;;;;;;;4964089;28;20050;-51
2021/04/30 09:22:06;;;;;;;23.13;10.73;;;;;;;;;;4961328;28;20479;-52
2021/04/30 09:24:33;;;;;;;52.67;16.73;;;;;;;;;;4955944;29;20046;-52
2021/04/30 09:26:59;;;;;;;42.97;13.77;;;;;;;;;;4955882;29;20019;-52
2021/04/30 09:29:28;;;;;;;19.08;7.47;;;;;;;;;;4966666;28;20061;-52
2021/04/30 09:31:54;;;;;;;16.33;5.85;;;;;;;;;;4974991;28;20042;-52
2021/04/30 09:34:25;;;;;;;17.52;6.97;;;;;;;;;;4974998;28;20023;-51
2021/04/30 09:37:10;;;;;;;27.25;5.30;;;;;;;;;;4974849;28;20027;-52
2021/04/30 09:39:55;;;;;;;22.70;7.30;;;;;;;;;;4974908;28;20040;-51
2021/04/30 09:42:22;;;;;;;6.47;3.00;;;;;;;;;;4975184;28;20035;-53
2021/04/30 09:44:50;;;;;;;14.25;6.03;;;;;;;;;;4975018;28;20386;-53
2021/04/30 09:47:17;;;;;;;25.60;9.82;;;;;;;;;;4974641;28;20041;-51
2021/04/30 09:49:44;;;;;;;10.02;4.18;;;;;;;;;;4974806;28;20074;-49
2021/04/30 09:52:12;;;;;;;9.40;3.20;;;;;;;;;;4974803;28;20027;-51
2021/04/30 09:54:38;;;;;;;20.27;7.78;;;;;;;;;;4974658;28;20110;-51
2021/04/30 09:57:09;;;;;;;7.22;3.17;;;;;;;;;;4974796;28;20035;-51
2021/04/30 09:59:36;;;;;;;6.47;3.63;;;;;;;;;;4974721;28;20018;-49
2021/04/30 10:02:07;;;;;;;12.23;3.88;;;;;;;;;;4973353;28;20026;-51
2021/04/30 10:04:34;;;;;;;18.02;3.92;;;;;;;;;;4975102;28;20035;-50
2021/04/30 10:07:01;;;;;;;22.05;13.88;;;;;;;;;;4968297;28;20046;-47
2021/04/30 10:09:28;;;;;;;26.25;14.05;;;;;;;;;;4969307;28;20027;-53
2021/04/30 10:11:54;;;;;;;20.23;10.63;;;;;;;;;;4974523;28;20031;-50
2021/04/30 10:14:21;;;;;;;18.48;12.00;;;;;;;;;;4974431;28;20058;-52
2021/04/30 10:16:48;;;;;;;50.63;29.35;;;;;;;;;;4973591;28;20041;-51
2021/04/30 10:19:14;;;;;;;28.35;16.38;;;;;;;;;;4974105;28;20031;-51
2021/04/30 10:21:41;;;;;;;7.80;4.00;;;;;;;;;;4974267;28;20031;-50
2021/04/30 10:24:11;;;;;;;13.25;4.80;;;;;;;;;;4974254;28;20034;-50
2021/04/30 10:26:37;;;;;;;8.43;4.10;;;;;;;;;;4974356;28;20479;-52
2021/04/30 10:29:04;;;;;;;8.35;4.28;;;;;;;;;;4974564;28;20037;-48
2021/04/30 10:31:32;;;;;;;11.48;3.72;;;;;;;;;;4974119;28;20023;-49
2021/04/30 10:33:59;;;;;;;24.27;16.30;;;;;;;;;;4964874;28;20416;-49
2021/04/30 10:36:32;;;;;;;15.48;9.05;;;;;;;;;;4963145;28;20027;-48
2021/04/30 10:39:01;;;;;;;20.00;13.52;;;;;;;;;;4962524;28;20051;-50
2021/04/30 10:41:28;;;;;;;23.95;12.02;;;;;;;;;;4965957;28;20065;-51
2021/04/30 10:44:13;;;;;;;27.73;17.85;;;;;;;;;;4963457;28;20062;-52
2021/04/30 10:46:39;;;;;;;11.10;5.90;;;;;;;;;;4964284;28;20031;-50
2021/04/30 10:49:08;;;;;;;8.70;5.47;;;;;;;;;;4963005;28;20077;-50
2021/04/30 10:51:35;;;;;;;15.80;7.45;;;;;;;;;;4964435;28;20022;-51
2021/04/30 10:54:20;;;;;;;37.40;20.58;;;;;;;;;;4964971;28;20042;-47
2021/04/30 10:56:56;;;;;;;44.05;21.38;;;;;;;;;;4965861;28;20102;-49
2021/04/30 10:59:26;;;;;;;16.50;9.65;;;;;;;;;;4968794;28;20034;-51
2021/04/30 11:01:56;;;;;;;17.05;9.18;;;;;;;;;;4968127;28;20082;-49
2021/04/30 11:04:22;;;;;;;35.90;12.85;;;;;;;;;;4971125;28;20169;-49
2021/04/30 11:06:51;;;;;;;15.20;4.88;;;;;;;;;;4962412;28;20051;-49
2021/04/30 11:09:30;;;;;;;11.93;4.60;;;;;;;;;;4960857;28;20388;-52
2021/04/30 11:11:59;;;;;;;12.00;3.17;;;;;;;;;;4963593;28;20411;-51
2021/04/30 11:14:30;;;;;;;7.07;2.10;;;;;;;;;;4963496;28;20066;-50
2021/04/30 11:16:57;;;;;;;9.87;3.37;;;;;;;;;;4963095;28;20031;-52
2021/04/30 11:19:27;;;;;;;5.45;2.33;;;;;;;;;;4962174;28;20341;-51
2021/04/30 11:21:54;;;;;;;10.70;3.08;;;;;;;;;;4963179;28;20083;-52
2021/04/30 11:24:40;;;;;;;5.32;2.13;;;;;;;;;;4963820;28;20122;-51
2021/04/30 11:27:09;;;;;;;15.32;8.82;;;;;;;;;;4964166;28;20094;-51
2021/04/30 11:29:37;;;;;;;19.50;11.30;;;;;;;;;;4966302;28;20026;-52
2021/04/30 11:32:25;;;;;;;19.50;13.50;;;;;;;;;;4965155;28;20529;-50
2021/04/30 11:34:55;;;;;;;11.48;5.07;;;;;;;;;;4971765;28;20030;-50
2021/04/30 11:37:23;;;;;;;10.48;3.60;;;;;;;;;;4977308;28;20418;-52
2021/04/30 11:39:49;;;;;;;22.50;13.57;;;;;;;;;;4977262;28;20035;-51
2021/04/30 11:42:15;;;;;;;6.05;3.17;;;;;;;;;;4977448;28;20042;-52
2021/04/30 11:44:42;;;;;;;13.82;8.40;;;;;;;;;;4977167;28;20023;-52
2021/04/30 11:47:10;;;;;;;69.35;51.88;;;;;;;;;;4976898;28;20047;-51
2021/04/30 11:49:37;;;;;;;8.60;4.13;;;;;;;;;;4977115;28;20522;-53
2021/04/30 11:52:04;;;;;;;11.23;7.18;;;;;;;;;;4977018;28;20442;-52
2021/04/30 11:54:34;;;;;;;18.65;11.35;;;;;;;;;;4976903;28;20031;-52
2021/04/30 11:57:01;;;;;;;15.20;9.98;;;;;;;;;;4976893;28;20019;-53
2021/04/30 11:59:28;;;;;;;9.32;3.13;;;;;;;;;;4976962;28;20038;-52
2021/04/30 12:01:59;;;;;;;8.25;3.50;;;;;;;;;;4976758;28;20034;-52
2021/04/30 12:04:37;;;;;;;3.53;1.65;;;;;;;;;;4976934;28;20502;-51
2021/04/30 12:07:03;;;;;;;19.42;10.18;;;;;;;;;;4976364;28;20093;-52
2021/04/30 12:09:30;;;;;;;11.50;6.75;;;;;;;;;;4976790;28;20070;-51
2021/04/30 12:12:09;;;;;;;28.98;20.85;;;;;;;;;;4976636;28;20109;-52
2021/04/30 12:14:42;;;;;;;12.07;6.93;;;;;;;;;;4976482;28;20054;-53
2021/04/30 12:17:19;;;;;;;22.17;13.85;;;;;;;;;;4976556;28;20069;-52
2021/04/30 12:20:06;;;;;;;20.25;13.05;;;;;;;;;;4976753;28;20102;-52
2021/04/30 12:22:32;;;;;;;36.10;30.85;;;;;;;;;;4976488;28;20077;-53
2021/04/30 12:25:17;;;;;;;61.35;47.30;;;;;;;;;;4976477;28;20019;-59
2021/04/30 12:27:43;;;;;;;27.50;21.60;;;;;;;;;;4976370;28;20078;-54
2021/04/30 12:30:10;;;;;;;8.45;4.28;;;;;;;;;;4976100;28;20023;-53
2021/04/30 12:32:36;;;;;;;26.55;16.98;;;;;;;;;;4976180;28;20030;-53
2021/04/30 12:35:03;;;;;;;15.40;6.50;;;;;;;;;;4976440;28;20054;-53
2021/04/30 12:37:29;;;;;;;20.70;9.50;;;;;;;;;;4976224;28;20023;-52
2021/04/30 12:39:55;;;;;;;11.18;4.93;;;;;;;;;;4975848;28;20130;-52
2021/04/30 12:42:21;;;;;;;19.95;10.75;;;;;;;;;;4976008;28;20023;-52
2021/04/30 12:44:52;;;;;;;7.22;3.63;;;;;;;;;;4975900;28;20067;-53
2021/04/30 12:47:18;;;;;;;2.72;1.67;;;;;;;;;;4975872;28;20038;-52
2021/04/30 12:49:45;;;;;;;4.82;2.63;;;;;;;;;;4975934;28;20065;-53
2021/04/30 12:52:11;;;;;;;26.35;10.60;;;;;;;;;;4975875;28;20375;-53
2021/04/30 12:54:39;;;;;;;6.72;2.13;;;;;;;;;;4975995;28;20027;-53
2021/04/30 12:57:10;;;;;;;10.82;2.95;;;;;;;;;;4975933;28;20026;-51
2021/04/30 12:59:36;;;;;;;5.88;3.22;;;;;;;;;;4975818;28;20364;-52
2021/04/30 13:02:12;;;;;;;8.55;4.32;;;;;;;;;;4975706;28;20042;-50
2021/04/30 13:04:46;;;;;;;7.05;3.83;;;;;;;;;;4975658;28;20061;-52
2021/04/30 13:07:12;;;;;;;9.15;5.00;;;;;;;;;;4975394;28;20137;-52
2021/04/30 13:09:41;;;;;;;12.73;7.22;;;;;;;;;;4975691;28;20053;-52
2021/04/30 13:12:11;;;;;;;11.77;7.13;;;;;;;;;;4958001;28;20360;-53
2021/04/30 13:14:44;;;;;;;8.13;4.20;;;;;;;;;;4975628;28;20151;-53
2021/04/30 13:17:17;;;;;;;19.70;5.43;;;;;;;;;;4975453;28;20037;-52
2021/04/30 13:19:43;;;;;;;6.72;3.80;;;;;;;;;;4975487;28;20041;-52
2021/04/30 13:22:27;;;;;;;9.60;3.85;;;;;;;;;;4975360;28;20029;-53
2021/04/30 13:24:55;;;;;;;5.75;3.38;;;;;;;;;;4975427;28;20034;-52
2021/04/30 13:27:21;;;;;;;3.83;1.27;;;;;;;;;;4975446;28;20031;-53
2021/04/30 13:29:51;;;;;;;12.30;2.70;;;;;;;;;;4975160;28;20110;-54
2021/04/30 13:32:17;;;;;;;8.52;3.75;;;;;;;;;;4975068;28;20486;-52
2021/04/30 13:34:55;;;;;;;7.22;2.22;;;;;;;;;;4975017;28;20031;-53
2021/04/30 13:37:22;;;;;;;6.10;2.70;;;;;;;;;;4975239;28;20474;-54
2021/04/30 13:39:52;;;;;;;9.27;4.00;;;;;;;;;;4975057;28;20031;-53
2021/04/30 13:42:27;;;;;;;27.80;17.17;;;;;;;;;;4975190;28;20069;-54
2021/04/30 13:44:54;;;;;;;16.05;10.75;;;;;;;;;;4975026;28;20038;-52
2021/04/30 13:47:20;;;;;;;20.25;14.70;;;;;;;;;;4974808;28;20030;-53
2021/04/30 13:49:49;;;;;;;25.13;18.63;;;;;;;;;;4974289;28;20031;-53
2021/04/30 13:52:16;;;;;;;140.27;104.75;;;;;;;;;;4975301;28;20094;-54
2021/04/30 13:54:42;;;;;;;22.02;15.98;;;;;;;;;;4974860;28;20062;-53
2021/04/30 13:57:08;;;;;;;26.88;19.98;;;;;;;;;;4974921;28;20026;-52
2021/04/30 13:59:38;;;;;;;21.95;11.90;;;;;;;;;;4974749;28;20031;-53
2021/04/30 14:02:07;;;;;;;12.67;9.03;;;;;;;;;;4974579;28;20023;-52
2021/04/30 14:04:33;;;;;;;12.43;6.35;;;;;;;;;;4974570;28;20033;-52
2021/04/30 14:06:59;;;;;;;28.20;15.80;;;;;;;;;;4974628;28;20447;-52
2021/04/30 14:09:26;;;;;;;11.32;6.20;;;;;;;;;;4974513;28;20029;-52
2021/04/30 14:11:53;;;;;;;9.38;5.32;;;;;;;;;;4974789;28;20023;-52
2021/04/30 14:14:19;;;;;;;8.63;4.63;;;;;;;;;;4974610;28;20074;-52
2021/04/30 14:16:45;;;;;;;7.60;4.07;;;;;;;;;;4974394;28;20483;-52
2021/04/30 14:19:13;;;;;;;24.67;15.18;;;;;;;;;;4974395;28;20039;-52
2021/04/30 14:21:39;;;;;;;21.17;14.93;;;;;;;;;;4974346;28;20034;-52
2021/04/30 14:24:07;;;;;;;14.23;8.15;;;;;;;;;;4974388;28;20051;-52
2021/04/30 14:26:34;;;;;;;11.48;6.13;;;;;;;;;;4974288;28;20019;-53